createdAt,value
2023-01-13T00:01:56.627Z,5.00
2023-01-13T00:04:23.131Z,3.35
2023-01-13T00:06:49.576Z,5.18
2023-01-13T00:09:16.030Z,3.45
2023-01-13T00:11:42.618Z,5.00
2023-01-13T00:14:09.157Z,5.50
2023-01-13T00:16:35.617Z,5.18
2023-01-13T00:19:02.072Z,3.90
2023-01-13T00:21:28.534Z,3.88
2023-01-13T00:23:55.426Z,2.60
2023-01-13T00:26:24.964Z,3.75
2023-01-13T00:28:55.901Z,2.05
2023-01-13T00:31:22.427Z,3.10
2023-01-13T00:33:49.335Z,3.30
2023-01-13T00:36:16.987Z,4.07
2023-01-13T00:38:44.267Z,3.95
2023-01-13T00:41:13.677Z,2.95
2023-01-13T00:43:40.359Z,3.08
2023-01-13T00:46:08.636Z,2.70
2023-01-13T00:48:35.993Z,3.15
2023-01-13T00:51:05.750Z,3.72
2023-01-13T00:53:37.737Z,2.88
2023-01-13T00:56:22.135Z,1.85
2023-01-13T00:58:53.918Z,2.50
2023-01-13T01:01:22.401Z,4.07
2023-01-13T01:03:53.429Z,2.15
2023-01-13T01:06:26.010Z,1.98
2023-01-13T01:08:53.559Z,4.22
2023-01-13T01:11:25.470Z,2.55
2023-01-13T01:13:54.003Z,1.88
2023-01-13T01:16:22.716Z,1.83
2023-01-13T01:18:50.990Z,3.53
2023-01-13T01:21:18.485Z,1.83
2023-01-13T01:23:45.660Z,4.13
2023-01-13T01:26:18.209Z,4.05
2023-01-13T01:28:46.005Z,2.63
2023-01-13T01:31:15.242Z,4.25
2023-01-13T01:33:41.738Z,4.40
2023-01-13T01:36:11.181Z,4.32
2023-01-13T01:38:38.015Z,8.93
2023-01-13T01:41:04.827Z,5.78
2023-01-13T01:43:48.175Z,4.47
2023-01-13T01:46:14.655Z,3.13
2023-01-13T01:48:43.024Z,7.03
2023-01-13T01:51:13.347Z,7.05
2023-01-13T01:53:40.499Z,4.75
2023-01-13T01:56:08.992Z,7.25
2023-01-13T01:58:41.059Z,5.95
2023-01-13T02:01:08.265Z,9.05
2023-01-13T02:03:40.084Z,7.32
2023-01-13T02:06:06.805Z,9.23
2023-01-13T02:08:33.324Z,11.07
2023-01-13T02:10:59.792Z,13.20
2023-01-13T02:13:26.319Z,9.23
2023-01-13T02:16:22.019Z,9.40
2023-01-13T02:19:23.562Z,14.85
2023-01-13T02:22:07.031Z,14.23
2023-01-13T02:24:48.022Z,17.50
2023-01-13T02:27:44.423Z,13.70
2023-01-13T02:30:49.684Z,16.35
2023-01-13T02:33:45.459Z,13.97
2023-01-13T02:36:31.588Z,11.15
2023-01-13T02:39:10.044Z,12.10
2023-01-13T02:41:50.758Z,19.40
2023-01-13T02:44:24.637Z,19.23
2023-01-13T02:47:10.395Z,20.13
2023-01-13T02:49:42.605Z,12.57
2023-01-13T02:52:17.619Z,18.15
2023-01-13T02:54:47.837Z,14.82
2023-01-13T02:57:18.141Z,18.85
2023-01-13T02:59:44.547Z,13.57
2023-01-13T03:02:16.226Z,12.45
2023-01-13T03:04:52.248Z,17.27
2023-01-13T03:07:18.472Z,17.25
2023-01-13T03:10:00.384Z,14.60
2023-01-13T03:12:43.844Z,13.73
2023-01-13T03:15:22.679Z,14.02
2023-01-13T03:17:55.656Z,18.20
2023-01-13T03:20:30.901Z,20.40
2023-01-13T03:23:07.317Z,14.25
2023-01-13T03:25:49.547Z,18.67
2023-01-13T03:28:25.495Z,15.35
2023-01-13T03:30:59.059Z,18.50
2023-01-13T03:33:31.808Z,19.65
2023-01-13T03:36:04.698Z,15.15
2023-01-13T03:38:39.429Z,17.67
2023-01-13T03:41:15.559Z,20.35
2023-01-13T03:43:48.634Z,21.13
2023-01-13T03:46:21.396Z,14.93
2023-01-13T03:48:52.881Z,14.50
2023-01-13T03:51:25.047Z,19.58
2023-01-13T03:53:57.685Z,20.80
2023-01-13T03:56:31.139Z,24.27
2023-01-13T03:59:00.664Z,16.90
2023-01-13T04:02:01.586Z,29.45
2023-01-13T04:04:41.633Z,25.08
2023-01-13T04:07:27.143Z,22.27
2023-01-13T04:09:57.306Z,27.50
2023-01-13T04:12:28.567Z,21.50
2023-01-13T04:14:55.965Z,27.30
2023-01-13T04:17:22.341Z,21.27
2023-01-13T04:19:48.623Z,15.98
2023-01-13T04:22:14.929Z,21.17
2023-01-13T04:24:41.252Z,23.65
2023-01-13T04:27:07.600Z,18.10
2023-01-13T04:29:33.898Z,17.08
2023-01-13T04:32:00.206Z,23.13
2023-01-13T04:34:28.410Z,14.93
2023-01-13T04:36:54.909Z,20.75
2023-01-13T04:39:21.224Z,20.75
2023-01-13T04:41:47.528Z,17.90
2023-01-13T04:44:13.828Z,23.48
2023-01-13T04:46:40.140Z,14.88
2023-01-13T04:49:06.446Z,24.10
2023-01-13T04:51:32.739Z,19.20
2023-01-13T04:53:59.058Z,23.27
2023-01-13T04:56:25.350Z,21.10
2023-01-13T04:58:51.656Z,21.48
2023-01-13T05:01:18.044Z,22.80
2023-01-13T05:03:44.405Z,22.90
2023-01-13T05:06:10.721Z,27.38
2023-01-13T05:08:37.265Z,30.15
2023-01-13T05:11:03.581Z,24.30
2023-01-13T05:13:29.874Z,20.40
2023-01-13T05:15:56.182Z,23.65
2023-01-13T05:18:22.534Z,28.05
2023-01-13T05:20:49.684Z,18.02
2023-01-13T05:23:15.996Z,21.63
2023-01-13T05:25:44.412Z,24.83
2023-01-13T05:28:11.043Z,20.55
2023-01-13T05:30:41.196Z,25.52
2023-01-13T05:33:07.759Z,21.13
2023-01-13T05:35:34.058Z,23.08
2023-01-13T05:38:00.347Z,24.88
2023-01-13T05:40:26.648Z,30.02
2023-01-13T05:43:01.912Z,16.63
2023-01-13T05:45:30.477Z,25.73
2023-01-13T05:47:57.364Z,25.02
2023-01-13T05:50:23.920Z,21.17
2023-01-13T05:52:50.326Z,21.50
2023-01-13T05:55:16.624Z,23.02
2023-01-13T05:57:42.920Z,17.80
2023-01-13T06:00:09.791Z,17.27
2023-01-13T06:02:36.133Z,22.90
2023-01-13T06:05:02.522Z,20.10
2023-01-13T06:07:28.827Z,15.55
2023-01-13T06:09:55.164Z,16.08
2023-01-13T06:12:21.485Z,21.40
2023-01-13T06:14:47.788Z,13.18
2023-01-13T06:17:15.533Z,17.73
2023-01-13T06:19:42.611Z,16.42
2023-01-13T06:22:16.201Z,14.43
2023-01-13T06:24:44.609Z,17.90
2023-01-13T06:27:10.973Z,17.30
2023-01-13T06:29:37.298Z,12.20
2023-01-13T06:32:07.012Z,20.50
2023-01-13T06:34:35.445Z,14.07
2023-01-13T06:37:03.391Z,16.02
2023-01-13T06:39:30.435Z,14.32
2023-01-13T06:41:58.404Z,13.07
2023-01-13T06:44:24.837Z,14.70
2023-01-13T06:46:51.781Z,17.77
2023-01-13T06:49:21.307Z,14.75
2023-01-13T06:51:47.806Z,13.55
2023-01-13T06:54:14.133Z,20.15
2023-01-13T06:56:40.479Z,13.38
2023-01-13T06:59:06.816Z,12.68
2023-01-13T07:01:33.213Z,12.52
2023-01-13T07:03:59.577Z,14.85
2023-01-13T07:06:26.002Z,12.70
2023-01-13T07:08:52.327Z,11.55
2023-01-13T07:11:18.662Z,17.60
2023-01-13T07:13:44.968Z,14.30
2023-01-13T07:16:12.514Z,12.45
2023-01-13T07:18:39.020Z,14.88
2023-01-13T07:21:06.803Z,13.82
2023-01-13T07:23:39.965Z,19.90
2023-01-13T07:26:07.713Z,14.05
2023-01-13T07:28:34.170Z,19.95
2023-01-13T07:31:01.079Z,21.63
2023-01-13T07:33:27.573Z,23.90
2023-01-13T07:35:58.524Z,17.98
2023-01-13T07:38:25.582Z,15.45
2023-01-13T07:40:51.906Z,15.95
2023-01-13T07:43:18.207Z,18.48
2023-01-13T07:45:44.553Z,16.73
2023-01-13T07:48:10.909Z,10.93
2023-01-13T07:50:37.253Z,15.52
2023-01-13T07:53:03.673Z,12.75
2023-01-13T07:55:29.994Z,13.95
2023-01-13T07:57:56.299Z,10.35
2023-01-13T08:00:23.184Z,19.95
2023-01-13T08:02:49.541Z,19.83
2023-01-13T08:05:15.895Z,17.85
2023-01-13T08:07:42.202Z,13.27
2023-01-13T08:10:08.986Z,14.52
2023-01-13T08:12:35.270Z,13.85
2023-01-13T08:15:01.581Z,16.55
2023-01-13T08:17:27.907Z,17.15
2023-01-13T08:19:54.206Z,18.15
2023-01-13T08:22:21.051Z,13.85
2023-01-13T08:24:47.375Z,15.60
2023-01-13T08:27:14.074Z,16.98
2023-01-13T08:29:40.403Z,16.23
2023-01-13T08:32:06.741Z,14.13
2023-01-13T08:34:33.131Z,14.05
2023-01-13T08:36:59.471Z,19.63
2023-01-13T08:39:25.792Z,15.45
2023-01-13T08:41:52.351Z,16.85
2023-01-13T08:44:18.703Z,14.77
2023-01-13T08:46:45.014Z,16.48
2023-01-13T08:49:11.329Z,13.27
2023-01-13T08:51:37.647Z,28.10
2023-01-13T08:54:04.153Z,16.58
2023-01-13T08:56:32.218Z,18.63
2023-01-13T08:59:00.966Z,19.63
2023-01-13T09:01:27.680Z,23.38
2023-01-13T09:03:54.442Z,23.90
2023-01-13T09:06:20.841Z,18.90
2023-01-13T09:08:47.237Z,14.57
2023-01-13T09:11:18.927Z,11.60
2023-01-13T09:13:45.237Z,13.32
2023-01-13T09:16:11.590Z,14.00
2023-01-13T09:18:37.953Z,18.95
2023-01-13T09:21:04.482Z,18.88
2023-01-13T09:23:30.808Z,17.52
2023-01-13T09:25:57.129Z,20.50
2023-01-13T09:28:23.575Z,13.07
2023-01-13T09:30:49.946Z,15.98
2023-01-13T09:33:16.291Z,18.10
2023-01-13T09:35:42.603Z,17.90
2023-01-13T09:38:08.931Z,17.17
2023-01-13T09:40:39.551Z,13.98
2023-01-13T09:43:25.828Z,15.23
2023-01-13T09:46:02.090Z,14.23
2023-01-13T09:48:37.594Z,14.32
2023-01-13T09:51:14.827Z,12.40
2023-01-13T09:53:50.488Z,16.17
2023-01-13T09:56:17.017Z,19.10
2023-01-13T09:58:46.068Z,14.40
2023-01-13T10:01:34.536Z,17.48
2023-01-13T10:04:15.093Z,14.13
2023-01-13T10:06:44.137Z,17.17
2023-01-13T10:09:18.821Z,13.75
2023-01-13T10:11:48.427Z,24.75
2023-01-13T10:14:20.271Z,17.40
2023-01-13T10:16:46.567Z,13.75
2023-01-13T10:19:53.388Z,19.33
2023-01-13T10:22:59.753Z,17.30
2023-01-13T10:25:44.537Z,12.57
2023-01-13T10:28:13.600Z,18.35
2023-01-13T10:30:43.370Z,13.93
2023-01-13T10:33:22.599Z,16.13
2023-01-13T10:36:16.533Z,18.70
2023-01-13T10:38:46.213Z,21.20
2023-01-13T10:41:15.474Z,20.13
2023-01-13T10:43:57.113Z,19.42
2023-01-13T10:46:23.818Z,16.40
2023-01-13T10:48:57.145Z,15.68
2023-01-13T10:51:39.345Z,14.52
2023-01-13T10:54:11.685Z,12.10
2023-01-13T10:56:42.626Z,15.02
2023-01-13T10:59:15.041Z,20.90
2023-01-13T11:01:53.951Z,16.83
2023-01-13T11:04:43.122Z,16.67
2023-01-13T11:07:28.740Z,18.40
2023-01-13T11:10:19.580Z,26.48
2023-01-13T11:12:49.079Z,14.80
2023-01-13T11:15:21.837Z,24.30
2023-01-13T11:17:58.401Z,22.58
2023-01-13T11:20:29.993Z,16.58
2023-01-13T11:22:58.904Z,17.67
2023-01-13T11:25:27.165Z,16.10
2023-01-13T11:28:02.389Z,15.95
2023-01-13T11:30:38.648Z,23.70
2023-01-13T11:33:19.979Z,21.73
2023-01-13T11:36:08.069Z,20.27
2023-01-13T11:38:54.496Z,21.02
2023-01-13T11:41:48.790Z,18.08
2023-01-13T11:44:22.667Z,22.23
2023-01-13T11:46:50.929Z,15.85
2023-01-13T11:49:26.852Z,14.30
2023-01-13T11:52:00.952Z,17.50
2023-01-13T11:54:46.042Z,19.25
2023-01-13T11:57:27.806Z,25.90
2023-01-13T12:00:08.655Z,24.77
2023-01-13T12:03:11.894Z,18.15
2023-01-13T12:05:44.269Z,24.65
2023-01-13T12:08:45.787Z,22.52
2023-01-13T12:11:24.361Z,16.40
2023-01-13T12:13:53.604Z,16.02
2023-01-13T12:16:28.314Z,14.68
2023-01-13T12:19:21.174Z,17.02
2023-01-13T12:22:12.332Z,15.52
2023-01-13T12:24:51.542Z,18.45
2023-01-13T12:27:26.655Z,17.50
2023-01-13T12:29:55.629Z,20.65
2023-01-13T12:32:31.018Z,19.42
2023-01-13T12:35:17.086Z,20.60
2023-01-13T12:38:11.554Z,16.83
2023-01-13T12:41:02.400Z,18.35
2023-01-13T12:43:29.963Z,22.90
2023-01-13T12:46:19.113Z,18.02
2023-01-13T12:48:48.366Z,19.65
2023-01-13T12:51:28.899Z,20.85
2023-01-13T12:53:56.080Z,18.50
2023-01-13T12:56:42.725Z,19.48
2023-01-13T12:59:17.866Z,18.90
2023-01-13T13:01:46.054Z,17.20
2023-01-13T13:04:17.157Z,14.52
2023-01-13T13:07:17.416Z,19.60
2023-01-13T13:09:52.112Z,15.63
2023-01-13T13:12:30.457Z,10.95
2023-01-13T13:14:56.781Z,16.77
2023-01-13T13:17:29.059Z,14.32
2023-01-13T13:19:56.512Z,15.43
2023-01-13T13:22:28.529Z,19.00
2023-01-13T13:24:54.771Z,18.45
2023-01-13T13:27:49.523Z,17.35
2023-01-13T13:30:30.123Z,14.50
2023-01-13T13:33:02.547Z,13.80
2023-01-13T13:35:53.619Z,17.13
2023-01-13T13:38:44.259Z,15.70
2023-01-13T13:41:19.721Z,13.98
2023-01-13T13:43:46.077Z,17.77
2023-01-13T13:46:32.940Z,11.20
2023-01-13T13:48:59.252Z,14.57
2023-01-13T13:51:36.696Z,16.98
2023-01-13T13:54:04.838Z,17.83
2023-01-13T13:56:38.259Z,13.63
2023-01-13T13:59:04.642Z,15.82
2023-01-13T14:01:38.335Z,14.45
2023-01-13T14:04:11.344Z,13.63
2023-01-13T14:06:37.910Z,16.52
2023-01-13T14:09:04.307Z,18.02
2023-01-13T14:11:33.093Z,12.88
2023-01-13T14:14:21.364Z,11.38
2023-01-13T14:16:47.731Z,17.40
2023-01-13T14:19:35.543Z,18.85
2023-01-13T14:22:04.452Z,20.10
2023-01-13T14:24:31.662Z,16.90
2023-01-13T14:27:09.926Z,17.33
2023-01-13T14:29:36.543Z,19.52
2023-01-13T14:32:05.578Z,14.73
2023-01-13T14:34:33.393Z,17.27
2023-01-13T14:37:00.812Z,13.57
2023-01-13T14:39:41.471Z,13.55
2023-01-13T14:42:16.980Z,19.30
2023-01-13T14:44:48.335Z,11.68
2023-01-13T14:47:27.923Z,13.20
2023-01-13T14:50:16.591Z,12.43
2023-01-13T14:52:53.746Z,11.30
2023-01-13T14:55:26.633Z,12.35
2023-01-13T14:57:53.080Z,16.02
2023-01-13T15:00:25.275Z,10.57
2023-01-13T15:02:57.643Z,12.60
2023-01-13T15:05:30.949Z,11.10
2023-01-13T15:08:21.176Z,12.30
2023-01-13T15:11:02.340Z,10.80
2023-01-13T15:13:53.091Z,15.10
2023-01-13T15:16:26.024Z,9.60
2023-01-13T15:18:53.796Z,13.25
2023-01-13T15:21:20.181Z,13.93
2023-01-13T15:23:46.720Z,13.88
2023-01-13T15:26:21.595Z,12.45
2023-01-13T15:31:15.577Z,6.30
2023-01-13T15:33:42.114Z,12.00
2023-01-13T15:36:29.948Z,6.82
2023-01-13T15:38:57.745Z,14.40
2023-01-13T15:41:24.574Z,12.10
2023-01-13T15:43:50.865Z,11.27
2023-01-13T15:46:18.625Z,13.70
2023-01-13T15:48:45.285Z,12.73
2023-01-13T15:51:16.967Z,12.52
2023-01-13T15:53:43.939Z,17.58
2023-01-13T15:56:21.626Z,16.98
2023-01-13T15:58:47.928Z,13.50
2023-01-13T16:01:14.380Z,12.57
2023-01-13T16:03:40.747Z,12.85
2023-01-13T16:06:16.763Z,11.00
2023-01-13T16:08:43.146Z,14.10
2023-01-13T16:11:10.986Z,11.43
2023-01-13T16:13:37.343Z,13.65
2023-01-13T16:16:13.258Z,13.55
2023-01-13T16:18:39.574Z,19.45
2023-01-13T16:21:05.936Z,19.95
2023-01-13T16:23:32.237Z,17.73
2023-01-13T16:25:58.565Z,14.90
2023-01-13T16:28:26.103Z,11.80
2023-01-13T16:30:52.550Z,21.02
2023-01-13T16:33:18.852Z,19.73
2023-01-13T16:36:10.437Z,15.98
2023-01-13T16:38:31.453Z,20.50
2023-01-13T16:40:57.831Z,17.65
2023-01-13T16:43:24.144Z,16.05
2023-01-13T16:45:50.526Z,21.98
2023-01-13T16:48:20.329Z,15.48
2023-01-13T16:50:46.755Z,22.45
2023-01-13T16:53:13.100Z,18.77
2023-01-13T16:55:40.612Z,18.35
2023-01-13T16:58:17.183Z,14.70
2023-01-13T17:00:44.053Z,14.52
2023-01-13T17:03:10.425Z,17.23
2023-01-13T17:05:40.610Z,17.20
2023-01-13T17:08:06.972Z,17.13
2023-01-13T17:10:33.545Z,13.02
2023-01-13T17:13:04.531Z,14.32
2023-01-13T17:15:39.956Z,19.48
2023-01-13T17:18:06.284Z,15.40
2023-01-13T17:20:32.566Z,15.55
2023-01-13T17:22:58.947Z,16.30
2023-01-13T17:25:25.229Z,18.83
2023-01-13T17:27:51.596Z,11.07
2023-01-13T17:30:17.985Z,14.93
2023-01-13T17:32:44.345Z,13.38
2023-01-13T17:35:10.732Z,17.40
2023-01-13T17:37:37.019Z,17.80
2023-01-13T17:40:03.649Z,15.10
2023-01-13T17:42:30.059Z,11.20
2023-01-13T17:44:56.465Z,9.75
2023-01-13T17:47:22.781Z,11.80
2023-01-13T17:49:49.079Z,13.60
2023-01-13T17:52:15.469Z,12.60
2023-01-13T17:54:41.760Z,6.90
2023-01-13T17:57:08.232Z,11.85
2023-01-13T17:59:34.531Z,16.65
2023-01-13T18:02:01.055Z,14.27
2023-01-13T18:04:27.490Z,10.90
2023-01-13T18:06:54.453Z,19.40
2023-01-13T18:09:20.751Z,21.80
2023-01-13T18:11:47.412Z,25.40
2023-01-13T18:14:13.831Z,19.70
2023-01-13T18:16:40.411Z,20.55
2023-01-13T18:19:06.803Z,19.45
2023-01-13T18:21:33.112Z,20.90
2023-01-13T18:23:59.398Z,21.75
2023-01-13T18:26:25.764Z,20.40
2023-01-13T18:28:52.130Z,17.60
2023-01-13T18:31:18.544Z,17.63
2023-01-13T18:33:44.879Z,19.35
2023-01-13T18:36:11.403Z,24.95
2023-01-13T18:38:37.693Z,22.67
2023-01-13T18:41:05.195Z,17.77
2023-01-13T18:43:33.495Z,17.42
2023-01-13T18:45:59.882Z,22.55
2023-01-13T18:48:26.206Z,23.08
2023-01-13T18:50:53.303Z,14.80
2023-01-13T18:53:19.619Z,23.73
2023-01-13T18:55:45.947Z,19.13
2023-01-13T18:58:12.269Z,22.50
2023-01-13T19:00:38.589Z,22.77
2023-01-13T19:05:32.842Z,21.67
2023-01-13T19:07:59.150Z,19.92
2023-01-13T19:10:25.476Z,19.00
2023-01-13T19:12:51.837Z,19.52
2023-01-13T19:15:18.183Z,14.73
2023-01-13T19:17:44.471Z,17.17
2023-01-13T19:20:11.396Z,16.88
2023-01-13T19:22:38.055Z,22.10
2023-01-13T19:25:05.016Z,22.42
2023-01-13T19:27:31.583Z,19.05
2023-01-13T19:29:57.946Z,22.83
2023-01-13T19:32:24.697Z,22.42
2023-01-13T19:34:51.353Z,21.05
2023-01-13T19:37:18.744Z,26.55
2023-01-13T19:39:45.113Z,20.73
2023-01-13T19:42:12.430Z,21.15
2023-01-13T19:44:38.804Z,18.23
2023-01-13T19:47:05.125Z,23.73
2023-01-13T19:49:31.668Z,17.42
2023-01-13T19:51:58.106Z,17.13
2023-01-13T19:54:24.449Z,16.45
2023-01-13T19:56:50.797Z,17.85
2023-01-13T19:59:17.107Z,17.55
2023-01-13T20:01:43.515Z,17.25
2023-01-13T20:04:09.897Z,15.20
2023-01-13T20:06:36.189Z,18.50
2023-01-13T20:09:02.560Z,16.58
2023-01-13T20:11:28.861Z,10.88
2023-01-13T20:13:55.816Z,12.93
2023-01-13T20:16:22.217Z,15.60
2023-01-13T20:18:49.619Z,12.02
2023-01-13T20:21:15.955Z,15.43
2023-01-13T20:23:42.503Z,20.25
2023-01-13T20:26:08.869Z,18.25
2023-01-13T20:28:35.438Z,12.40
2023-01-13T20:31:05.604Z,20.02
2023-01-13T20:33:31.955Z,14.02
2023-01-13T20:35:58.630Z,14.27
2023-01-13T20:38:24.954Z,13.70
2023-01-13T20:41:01.576Z,16.15
2023-01-13T20:43:28.071Z,17.77
2023-01-13T20:45:54.391Z,20.50
2023-01-13T20:48:20.759Z,17.10
2023-01-13T20:50:52.629Z,16.02
2023-01-13T20:53:18.987Z,12.85
2023-01-13T20:55:45.399Z,11.90
2023-01-13T20:58:11.729Z,14.02
2023-01-13T21:00:38.057Z,11.65
2023-01-13T21:03:04.401Z,11.27
2023-01-13T21:05:30.697Z,14.52
2023-01-13T21:07:56.999Z,11.98
2023-01-13T21:10:23.325Z,12.45
2023-01-13T21:12:49.668Z,11.82
2023-01-13T21:15:16.026Z,8.80
2023-01-13T21:17:42.917Z,9.60
2023-01-13T21:20:11.617Z,7.28
2023-01-13T21:22:37.971Z,10.20
2023-01-13T21:25:05.667Z,10.85
2023-01-13T21:27:32.235Z,8.52
2023-01-13T21:29:58.553Z,6.80
2023-01-13T21:32:24.847Z,9.38
2023-01-13T21:34:51.228Z,9.80
2023-01-13T21:37:17.512Z,8.60
2023-01-13T21:39:44.407Z,12.23
2023-01-13T21:42:14.736Z,12.60
2023-01-13T21:44:41.036Z,10.40
2023-01-13T21:47:16.585Z,7.95
2023-01-13T21:49:42.866Z,8.07
2023-01-13T21:52:09.623Z,8.30
2023-01-13T21:54:35.952Z,8.65
2023-01-13T21:57:02.271Z,7.05
2023-01-13T21:59:28.602Z,7.50
2023-01-13T22:02:12.332Z,9.18
2023-01-13T22:04:41.176Z,7.95
2023-01-13T22:07:07.479Z,11.15
2023-01-13T22:09:33.780Z,10.75
2023-01-13T22:12:00.097Z,9.57
2023-01-13T22:14:26.420Z,11.55
2023-01-13T22:16:52.762Z,13.38
2023-01-13T22:19:19.099Z,11.48
2023-01-13T22:21:45.418Z,8.05
2023-01-13T22:24:11.880Z,11.35
2023-01-13T22:26:38.179Z,6.90
2023-01-13T22:29:04.517Z,9.05
2023-01-13T22:31:30.955Z,8.93
2023-01-13T22:33:57.285Z,8.55
2023-01-13T22:36:23.672Z,6.18
2023-01-13T22:38:54.457Z,8.35
2023-01-13T22:41:20.739Z,7.72
2023-01-13T22:43:47.056Z,10.00
2023-01-13T22:46:13.615Z,5.80
2023-01-13T22:48:40.983Z,6.80
2023-01-13T22:51:12.994Z,8.43
2023-01-13T22:53:40.031Z,3.65
2023-01-13T22:56:07.299Z,9.80
2023-01-13T22:58:33.691Z,5.38
2023-01-13T23:01:15.528Z,7.93
2023-01-13T23:03:41.952Z,5.05
2023-01-13T23:06:08.430Z,6.25
2023-01-13T23:08:35.547Z,8.57
2023-01-13T23:11:06.930Z,6.28
2023-01-13T23:13:33.508Z,8.60
2023-01-13T23:16:05.415Z,8.90
2023-01-13T23:18:32.106Z,7.00
2023-01-13T23:21:12.882Z,8.32
2023-01-13T23:23:39.846Z,9.25
2023-01-13T23:26:07.365Z,9.20
2023-01-13T23:28:35.511Z,8.10
2023-01-13T23:31:14.058Z,6.57
2023-01-13T23:33:40.915Z,13.30
2023-01-13T23:36:08.395Z,11.55
2023-01-13T23:38:34.934Z,10.68
2023-01-13T23:41:04.312Z,14.38
2023-01-13T23:43:30.666Z,12.32
2023-01-13T23:46:14.952Z,9.52
2023-01-13T23:48:41.301Z,13.50
2023-01-13T23:51:10.565Z,14.10
2023-01-13T23:53:43.233Z,14.65
2023-01-13T23:56:17.943Z,11.60
2023-01-13T23:58:44.653Z,10.38
